createdAt,value
2018-04-18T00:02:29.962Z,10.73
2018-04-18T00:05:08.189Z,11.55
2018-04-18T00:07:48.328Z,10.27
2018-04-18T00:10:23.787Z,11.27
2018-04-18T00:13:02.252Z,11.90
2018-04-18T00:15:41.242Z,10.85
2018-04-18T00:18:18.261Z,10.75
2018-04-18T00:20:57.819Z,9.68
2018-04-18T00:23:33.867Z,9.95
2018-04-18T00:26:10.009Z,9.63
2018-04-18T00:28:47.016Z,10.48
2018-04-18T00:31:17.512Z,10.30
2018-04-18T00:33:54.903Z,11.20
2018-04-18T00:36:30.636Z,10.00
2018-04-18T00:39:07.657Z,9.73
2018-04-18T00:41:50.502Z,9.93
2018-04-18T00:44:29.181Z,9.15
2018-04-18T00:47:05.645Z,11.95
2018-04-18T00:49:44.745Z,10.13
2018-04-18T00:52:25.160Z,9.32
2018-04-18T00:55:04.893Z,10.23
2018-04-18T00:57:42.530Z,9.40
2018-04-18T01:00:19.213Z,9.82
2018-04-18T01:03:03.899Z,9.77
2018-04-18T01:05:34.349Z,10.00
2018-04-18T01:08:11.441Z,10.30
2018-04-18T01:10:51.638Z,9.55
2018-04-18T01:13:30.338Z,8.88
2018-04-18T01:16:08.608Z,8.85
2018-04-18T01:18:44.350Z,9.25
2018-04-18T01:21:21.112Z,10.57
2018-04-18T01:23:56.632Z,9.43
2018-04-18T01:26:35.473Z,10.20
2018-04-18T01:29:12.756Z,9.68
2018-04-18T01:31:49.457Z,9.85
2018-04-18T01:34:26.491Z,9.52
2018-04-18T01:37:06.811Z,11.00
2018-04-18T01:39:43.969Z,9.90
2018-04-18T01:42:21.049Z,10.00
2018-04-18T01:45:00.394Z,10.20
2018-04-18T01:47:38.600Z,11.38
2018-04-18T01:50:15.585Z,9.13
2018-04-18T01:52:53.603Z,9.98
2018-04-18T01:55:37.035Z,10.00
2018-04-18T01:58:06.944Z,9.55
2018-04-18T02:00:44.142Z,9.00
2018-04-18T02:03:21.700Z,9.75
2018-04-18T02:06:00.299Z,11.02
2018-04-18T02:08:36.848Z,11.27
2018-04-18T02:11:13.057Z,10.32
2018-04-18T02:13:51.187Z,11.38
2018-04-18T02:16:31.350Z,11.25
2018-04-18T02:19:07.865Z,12.30
2018-04-18T02:21:43.364Z,11.20
2018-04-18T02:24:21.731Z,11.40
2018-04-18T02:26:57.259Z,12.02
2018-04-18T02:29:34.207Z,10.90
2018-04-18T02:32:12.534Z,13.35
2018-04-18T02:34:49.998Z,10.65
2018-04-18T02:37:27.142Z,10.85
2018-04-18T02:40:05.178Z,10.65
2018-04-18T02:42:42.652Z,10.13
2018-04-18T02:45:20.815Z,10.15
2018-04-18T02:47:59.421Z,10.75
2018-04-18T02:50:37.860Z,11.63
2018-04-18T02:53:17.342Z,12.00
2018-04-18T02:55:57.144Z,10.10
2018-04-18T02:58:30.303Z,12.25
2018-04-18T03:01:00.425Z,11.05
2018-04-18T03:03:32.070Z,10.38
2018-04-18T03:06:11.818Z,10.70
2018-04-18T03:08:49.224Z,11.20
2018-04-18T03:11:25.509Z,10.43
2018-04-18T03:14:03.506Z,10.90
2018-04-18T03:16:41.313Z,10.35
2018-04-18T03:19:18.525Z,11.25
2018-04-18T03:21:56.144Z,10.35
2018-04-18T03:24:32.562Z,11.75
2018-04-18T03:27:07.463Z,11.52
2018-04-18T03:29:44.394Z,9.93
2018-04-18T03:32:15.682Z,10.55
2018-04-18T03:34:53.951Z,10.05
2018-04-18T03:37:33.913Z,11.50
2018-04-18T03:40:11.350Z,10.25
2018-04-18T03:42:49.661Z,10.27
2018-04-18T03:45:26.952Z,9.82
2018-04-18T03:47:58.970Z,10.65
2018-04-18T03:50:35.567Z,9.75
2018-04-18T03:53:18.400Z,10.90
2018-04-18T03:55:55.995Z,11.88
2018-04-18T03:58:36.545Z,11.52
2018-04-18T04:01:16.402Z,12.10
2018-04-18T04:03:47.793Z,12.65
2018-04-18T04:06:16.720Z,12.10
2018-04-18T04:08:55.692Z,12.00
2018-04-18T04:11:32.961Z,12.10
2018-04-18T04:14:10.957Z,11.80
2018-04-18T04:17:00.881Z,12.95
2018-04-18T04:19:47.554Z,11.85
2018-04-18T04:22:37.441Z,11.70
2018-04-18T17:02:14.200Z,3.07
2018-04-18T17:04:46.182Z,3.40
2018-04-18T17:07:17.392Z,3.67
2018-04-18T17:09:48.205Z,4.83
2018-04-18T17:12:28.844Z,4.73
2018-04-18T17:15:00.984Z,5.40
2018-04-18T17:17:31.848Z,3.13
2018-04-18T17:20:02.111Z,3.60
2018-04-18T17:22:34.460Z,3.80
2018-04-18T17:25:07.399Z,4.07
2018-04-18T17:27:37.992Z,3.23
2018-04-18T17:30:10.702Z,2.90
2018-04-18T17:32:41.438Z,3.63
2018-04-18T17:35:11.594Z,2.83
2018-04-18T17:37:41.422Z,3.37
2018-04-18T17:40:11.647Z,3.43
2018-04-18T17:42:42.040Z,2.80
2018-04-18T17:45:13.534Z,3.07
2018-04-18T17:47:44.213Z,3.47
2018-04-18T17:50:15.659Z,3.40
2018-04-18T17:52:46.829Z,3.80
2018-04-18T17:55:17.156Z,3.40
2018-04-18T17:57:47.940Z,3.37
2018-04-18T18:00:20.075Z,3.30
2018-04-18T18:02:50.352Z,3.50
2018-04-18T18:05:23.002Z,3.80
2018-04-18T18:07:56.021Z,3.80
2018-04-18T18:10:26.216Z,3.37
2018-04-18T18:12:57.229Z,4.00
2018-04-18T18:15:26.739Z,3.60
2018-04-18T18:17:57.049Z,3.00
2018-04-18T18:20:27.567Z,3.73
2018-04-18T18:22:57.063Z,4.17
2018-04-18T18:25:26.457Z,3.67
2018-04-18T18:27:56.198Z,4.50
2018-04-18T18:30:26.563Z,5.13
2018-04-18T18:32:57.473Z,14.67
2018-04-18T18:35:29.495Z,14.90
2018-04-18T18:37:59.921Z,18.20
2018-04-18T18:40:29.919Z,19.50
2018-04-18T18:43:00.942Z,19.30
2018-04-18T18:45:31.747Z,25.30
2018-04-18T18:48:03.029Z,20.40
2018-04-18T18:50:36.217Z,16.03
2018-04-18T18:53:07.324Z,14.10
2018-04-18T18:55:37.808Z,12.10
2018-04-18T18:58:09.121Z,11.60
2018-04-18T19:00:42.329Z,10.77
2018-04-18T19:03:14.981Z,9.33
2018-04-18T19:05:47.520Z,9.63
2018-04-18T19:08:17.586Z,7.73
2018-04-18T19:10:48.017Z,8.30
2018-04-18T19:13:18.569Z,6.80
2018-04-18T19:15:49.014Z,5.80
2018-04-18T19:18:18.954Z,7.20
2018-04-18T19:20:55.969Z,6.33
2018-04-18T19:23:30.871Z,6.90
2018-04-18T19:26:02.208Z,6.93
2018-04-18T19:28:47.799Z,7.73
2018-04-18T19:31:17.961Z,7.67
2018-04-18T19:33:48.433Z,7.40
2018-04-18T19:36:19.299Z,6.90
2018-04-18T19:38:50.668Z,7.97
2018-04-18T19:41:21.257Z,7.77
2018-04-18T19:43:51.974Z,7.83
2018-04-18T19:46:22.714Z,7.73
2018-04-18T19:48:53.420Z,7.63
2018-04-18T19:51:24.194Z,7.50
2018-04-18T19:53:55.247Z,8.87
2018-04-18T19:56:25.898Z,8.53
2018-04-18T19:58:56.176Z,9.10
2018-04-18T20:01:26.527Z,8.87
2018-04-18T20:03:57.778Z,8.57
2018-04-18T20:06:29.295Z,8.67
2018-04-18T20:08:59.832Z,8.43
2018-04-18T20:11:30.607Z,8.30
2018-04-18T20:14:01.249Z,8.80
2018-04-18T20:16:32.320Z,9.10
2018-04-18T20:19:03.119Z,10.87
2018-04-18T20:21:33.605Z,11.07
2018-04-18T20:24:03.947Z,8.47
2018-04-18T20:26:34.997Z,10.40
2018-04-18T20:29:06.165Z,9.70
2018-04-18T20:31:36.847Z,9.60
2018-04-18T20:34:07.337Z,8.77
2018-04-18T20:36:44.935Z,9.73
2018-04-18T20:39:15.347Z,9.07
2018-04-18T20:41:55.058Z,9.10
2018-04-18T20:44:25.605Z,9.47
2018-04-18T20:46:55.497Z,8.53
2018-04-18T20:49:26.167Z,9.43
2018-04-18T20:51:56.668Z,8.07
2018-04-18T20:54:28.275Z,8.90
2018-04-18T20:56:58.656Z,10.90
2018-04-18T20:59:30.131Z,8.30
2018-04-18T21:02:00.667Z,8.13
2018-04-18T21:04:31.999Z,9.43
2018-04-18T21:07:02.814Z,8.47
2018-04-18T21:09:33.811Z,8.70
2018-04-18T21:12:03.961Z,8.60
2018-04-18T21:14:34.666Z,8.93
2018-04-18T21:17:05.333Z,8.57
2018-04-18T21:19:35.907Z,8.60
2018-04-18T21:22:07.077Z,8.23
2018-04-18T21:24:37.530Z,8.30
2018-04-18T21:27:08.676Z,8.50
2018-04-18T21:29:39.211Z,8.20
2018-04-18T21:32:10.854Z,8.83
2018-04-18T21:34:41.304Z,8.73
2018-04-18T21:37:13.090Z,9.10
2018-04-18T21:39:43.499Z,8.37
2018-04-18T21:42:13.740Z,9.37
2018-04-18T21:44:44.368Z,8.60
2018-04-18T21:47:14.657Z,8.10
2018-04-18T21:49:46.029Z,8.53
2018-04-18T21:52:15.962Z,8.60
2018-04-18T21:54:46.346Z,8.47
2018-04-18T21:57:17.426Z,8.17
2018-04-18T21:59:47.952Z,7.63
2018-04-18T22:02:18.479Z,7.97
2018-04-18T22:04:49.243Z,7.17
2018-04-18T22:07:19.716Z,8.67
2018-04-18T22:09:50.335Z,8.83
2018-04-18T22:12:21.372Z,8.07
2018-04-18T22:14:52.363Z,7.60
2018-04-18T22:17:22.749Z,7.47
2018-04-18T22:19:53.721Z,8.53
2018-04-18T22:22:24.336Z,8.00
2018-04-18T22:24:54.546Z,7.77
2018-04-18T22:27:24.870Z,7.90
2018-04-18T22:29:55.602Z,8.37
2018-04-18T22:32:26.587Z,8.20
2018-04-18T22:34:56.992Z,7.57
2018-04-18T22:37:27.134Z,8.10
2018-04-18T22:39:57.895Z,8.43
2018-04-18T22:42:28.518Z,8.87
2018-04-18T22:44:59.127Z,9.77
2018-04-18T22:47:30.167Z,8.90
2018-04-18T22:50:00.929Z,8.80
2018-04-18T22:52:31.462Z,8.13
2018-04-18T22:55:01.925Z,9.97
2018-04-18T22:57:32.661Z,9.10
2018-04-18T23:00:03.298Z,9.97
2018-04-18T23:02:33.900Z,9.47
2018-04-18T23:05:04.735Z,10.03
2018-04-18T23:07:36.197Z,8.93
2018-04-18T23:10:07.385Z,9.50
2018-04-18T23:12:37.736Z,9.10
2018-04-18T23:15:08.118Z,8.53
2018-04-18T23:17:39.318Z,8.67
2018-04-18T23:20:10.319Z,7.10
2018-04-18T23:22:41.017Z,7.40
2018-04-18T23:25:11.381Z,7.90
2018-04-18T23:27:41.994Z,7.50
2018-04-18T23:30:12.764Z,7.80
2018-04-18T23:32:43.399Z,8.10
2018-04-18T23:35:13.950Z,7.80
2018-04-18T23:37:45.061Z,7.23
2018-04-18T23:40:15.761Z,8.03
2018-04-18T23:42:46.385Z,8.60
2018-04-18T23:45:17.221Z,7.60
2018-04-18T23:47:48.331Z,6.57
2018-04-18T23:50:18.888Z,7.73
2018-04-18T23:52:49.586Z,7.37
2018-04-18T23:55:20.072Z,8.70
2018-04-18T23:57:51.045Z,7.87
